Time;durP1;ratioP1;P1;durP2;ratioP2;P2;SDS_P1;SDS_P2;PMS_P1;PMS_P2;Temp;Humidity;BMP_temperature;BMP_pressure;BME280_temperature;BME280_humidity;BME280_pressure;Samples;Min_cycle;Max_cycle;Signal;HPM_P1;HPM_P2
2022/01/14 00:06:46;;;;;;;18.15;13.32;;;;;;;0.48;86.75;102908.94;5096275;28;20632;-78
2022/01/14 00:09:49;;;;;;;19.83;14.40;;;;;;;0.56;86.41;102912.56;5088935;28;20047;-78
2022/01/14 00:12:57;;;;;;;23.50;15.30;;;;;;;0.57;86.15;102909.16;5088573;28;20070;-78
2022/01/14 00:16:00;;;;;;;30.40;14.15;;;;;;;0.53;86.28;102907.34;5088729;28;20059;-78
2022/01/14 00:19:03;;;;;;;;;;;;;;;0.62;86.30;102907.59;5075799;28;20105;-78
2022/01/14 00:22:12;;;;;;;16.20;11.60;;;;;;;0.64;86.00;102911.09;5081538;28;19965;-78
2022/01/14 00:32:06;;;;;;;28.10;12.10;;;;;;;0.66;85.00;102893.97;5071477;28;20123;-78
2022/01/14 00:35:09;;;;;;;13.63;10.43;;;;;;;0.65;84.84;102892.22;5074550;28;20255;-78
2022/01/14 00:38:13;;;;;;;17.85;11.32;;;;;;;0.62;84.96;102896.41;5063244;28;20042;-78
2022/01/14 00:46:29;;;;;;;16.67;11.60;;;;;;;0.52;85.51;102889.28;5080976;28;20043;-78
2022/01/14 00:49:33;;;;;;;21.85;13.40;;;;;;;0.38;85.55;102888.91;5082325;28;20177;-78
2022/01/14 00:52:37;;;;;;;19.77;12.82;;;;;;;0.41;85.93;102883.81;5075459;28;20051;-78
2022/01/14 00:55:46;;;;;;;22.88;14.48;;;;;;;0.44;85.95;102889.06;5076269;28;20171;-78
2022/01/14 01:03:02;;;;;;;18.40;13.18;;;;;;;0.62;85.56;102887.00;5088723;28;20038;-78
2022/01/14 01:06:06;;;;;;;24.13;13.67;;;;;;;0.50;85.16;102886.66;5074622;28;20078;-78
2022/01/14 01:09:11;;;;;;;18.50;13.95;;;;;;;0.40;85.39;102879.53;5075321;28;20478;-78
2022/01/14 01:16:33;;;;;;;18.58;12.63;;;;;;;0.37;85.96;102870.00;5067965;28;20456;-78
2022/01/14 01:19:36;;;;;;;21.50;12.80;;;;;;;0.53;85.64;102870.44;5087995;28;20062;-78
2022/01/14 01:22:40;;;;;;;24.25;13.15;;;;;;;0.57;85.28;102872.25;5087586;28;20466;-78
2022/01/14 01:25:58;;;;;;;23.25;13.55;;;;;;;0.50;85.70;102866.06;5075205;28;20309;-78
2022/01/14 01:29:28;;;;;;;21.30;12.25;;;;;;;0.49;86.01;102864.34;5087135;28;20131;-78
2022/01/14 01:32:27;;;;;;;39.50;12.77;;;;;;;0.42;85.55;102857.28;5079730;28;20047;-78
2022/01/14 01:35:32;;;;;;;17.33;11.95;;;;;;;0.38;85.94;102855.44;5068629;28;20056;-78
2022/01/14 01:43:25;;;;;;;15.35;10.90;;;;;;;0.42;85.80;102852.13;5069411;28;20336;-78
2022/01/14 01:51:20;;;;;;;18.35;12.95;;;;;;;0.46;85.70;102843.66;5055683;28;20048;-77
2022/01/14 01:54:38;;;;;;;18.27;11.75;;;;;;;0.40;85.97;102844.34;5066700;28;20055;-78
2022/01/14 01:57:49;;;;;;;17.25;13.13;;;;;;;0.44;85.26;102838.44;5070073;28;20501;-78
2022/01/14 02:01:08;;;;;;;20.35;12.00;;;;;;;0.29;85.13;102850.03;5074419;28;20056;-77
2022/01/14 02:04:23;;;;;;;16.73;12.05;;;;;;;0.28;85.71;102843.16;5087481;28;20078;-78
2022/01/14 02:07:36;;;;;;;20.05;11.90;;;;;;;0.16;85.64;102843.69;5088111;28;20571;-78
2022/01/14 02:10:50;;;;;;;18.70;11.35;;;;;;;0.15;86.25;102841.94;5085933;28;20051;-78
2022/01/14 02:19:16;;;;;;;15.98;10.65;;;;;;;0.49;84.75;102833.44;5067515;28;20093;-78
2022/01/14 02:22:19;;;;;;;18.60;11.30;;;;;;;0.47;84.62;102827.38;5067534;28;20518;-78
2022/01/14 02:30:35;;;;;;;16.45;11.57;;;;;;;0.39;84.74;102821.16;5068666;28;20122;-78
2022/01/14 02:33:54;;;;;;;13.70;9.15;;;;;;;0.38;84.54;102820.31;5075690;28;20074;-78
2022/01/14 02:37:19;;;;;;;15.00;9.65;;;;;;;0.32;84.88;102825.28;5087203;28;20128;-78
2022/01/14 02:40:38;;;;;;;21.27;12.18;;;;;;;0.32;84.93;102817.56;5088818;28;20665;-78
2022/01/14 02:43:59;;;;;;;19.30;12.35;;;;;;;0.25;85.17;102822.47;5078846;28;20094;-78
2022/01/14 02:52:10;;;;;;;14.77;10.60;;;;;;;0.39;84.96;102805.72;5067709;28;20055;-78
2022/01/14 02:55:16;;;;;;;18.25;10.68;;;;;;;0.32;84.84;102808.94;5062275;28;20124;-78
2022/01/14 02:58:22;;;;;;;15.15;11.07;;;;;;;0.25;85.55;102801.91;5091413;28;20043;-78
2022/01/14 03:01:27;;;;;;;17.08;11.38;;;;;;;0.25;85.17;102800.19;5089032;28;20128;-78
2022/01/14 03:04:36;;;;;;;18.40;10.60;;;;;;;0.32;85.26;102802.13;5070705;28;20446;-78
2022/01/14 03:07:40;;;;;;;16.10;10.02;;;;;;;0.39;85.25;102800.56;5072369;28;20047;-78
2022/01/14 03:10:48;;;;;;;15.27;11.77;;;;;;;0.17;85.26;102807.72;5089637;28;20050;-78
2022/01/14 03:19:07;;;;;;;15.82;11.35;;;;;;;-0.06;86.60;102801.94;5069662;28;20063;-78
2022/01/14 03:22:30;;;;;;;16.52;11.57;;;;;;;0.06;86.10;102806.53;5069663;28;20055;-78
2022/01/14 03:25:48;;;;;;;16.42;10.23;;;;;;;0.12;85.76;102811.84;5076747;28;20043;-78
2022/01/14 03:28:51;;;;;;;23.25;10.80;;;;;;;0.02;85.85;102809.00;5078286;28;20059;-78
2022/01/14 03:31:55;;;;;;;18.40;11.70;;;;;;;-0.15;86.56;102805.97;5091012;28;20395;-78
2022/01/14 03:34:58;;;;;;;17.35;10.02;;;;;;;-0.01;86.90;102804.63;5090423;28;20051;-78
2022/01/14 03:38:02;;;;;;;17.67;9.50;;;;;;;0.21;85.96;102806.09;5088534;28;20142;-78
2022/01/14 03:41:06;;;;;;;14.90;10.32;;;;;;;0.03;85.55;102800.44;5069306;28;20094;-78
2022/01/14 03:44:10;;;;;;;19.92;11.73;;;;;;;0.05;85.69;102794.50;5069627;28;20102;-78
2022/01/14 03:47:14;;;;;;;26.30;10.38;;;;;;;-0.07;86.15;102794.16;5069655;28;20093;-78
2022/01/14 03:50:17;;;;;;;15.07;10.80;;;;;;;-0.18;87.09;102790.44;5078709;28;20502;-78
2022/01/14 03:53:22;;;;;;;17.85;10.63;;;;;;;-0.16;86.96;102789.66;5089714;28;20105;-78
2022/01/14 04:02:07;;;;;;;14.73;9.55;;;;;;;0.07;85.72;102790.28;5079232;28;20058;-77
2022/01/14 04:10:29;;;;;;;14.63;10.07;;;;;;;0.27;85.15;102782.25;5063439;28;20098;-78
2022/01/14 04:17:01;;;;;;;12.70;8.88;;;;;;;0.19;85.13;102777.78;5070973;28;20089;-78
2022/01/14 04:20:17;;;;;;;15.57;9.02;;;;;;;0.03;85.26;102770.44;5089816;28;20349;-78
2022/01/14 04:23:34;;;;;;;15.50;9.90;;;;;;;0.10;85.43;102762.09;5088120;28;20134;-78
2022/01/14 04:31:09;;;;;;;15.40;10.63;;;;;;;0.11;85.72;102743.22;5068850;28;20098;-78
2022/01/14 04:39:25;;;;;;;17.35;11.45;;;;;;;-0.11;86.99;102746.06;5067910;28;20117;-77
2022/01/14 04:42:29;;;;;;;18.75;11.35;;;;;;;-0.15;86.76;102745.13;5069279;28;20356;-78
2022/01/14 04:53:03;;;;;;;14.43;9.80;;;;;;;0.21;85.42;102726.34;5069032;28;20521;-77
2022/01/14 04:56:06;;;;;;;18.10;10.75;;;;;;;0.11;85.40;102721.78;5068246;28;20423;-77
2022/01/14 05:03:49;;;;;;;18.00;11.15;;;;;;;-0.21;87.53;102718.38;5067174;28;20553;-77
2022/01/14 05:06:58;;;;;;;16.67;10.73;;;;;;;0.07;86.74;102715.69;5075500;28;20109;-78
2022/01/14 05:14:21;;;;;;;19.90;9.80;;;;;;;0.14;85.97;102704.72;5087668;28;20136;-80
2022/01/14 05:17:34;;;;;;;;;;;;;;;0.21;85.99;102704.03;5088281;28;20460;-81
2022/01/14 05:20:37;;;;;;;22.27;10.45;;;;;;;0.20;85.72;102702.31;5075132;28;19969;-81
2022/01/14 05:23:42;;;;;;;20.38;12.43;;;;;;;0.27;85.42;102703.34;5075263;28;20406;-81
2022/01/14 05:27:38;;;;;;;18.48;12.40;;;;;;;0.21;84.91;102713.47;5091302;28;20441;-81
2022/01/14 05:30:42;;;;;;;17.40;11.02;;;;;;;0.23;84.47;102711.81;5080810;28;20505;-81
2022/01/14 05:33:47;;;;;;;21.48;11.98;;;;;;;0.23;84.81;102707.53;5088570;28;20429;-81
2022/01/14 05:36:50;;;;;;;14.93;9.73;;;;;;;0.26;84.23;102705.88;5075054;28;20467;-79
2022/01/14 05:39:56;;;;;;;19.33;13.93;;;;;;;0.05;84.94;102707.06;5086701;28;20043;-81
2022/01/14 05:43:00;;;;;;;17.02;9.77;;;;;;;0.01;85.26;102701.81;5086306;28;20136;-80
2022/01/14 05:50:24;;;;;;;15.43;9.68;;;;;;;0.11;84.67;102708.94;5074975;28;20505;-80
2022/01/14 05:58:27;;;;;;;14.63;8.68;;;;;;;0.12;84.25;102714.09;5078188;28;20043;-80
2022/01/14 06:01:31;;;;;;;11.77;7.95;;;;;;;0.09;83.90;102714.00;5086917;28;20608;-79
2022/01/14 06:04:50;;;;;;;;;;;;;;;;;;;;;
2022/01/14 06:09:10;;;;;;;19.35;11.52;;;;;;;0.09;83.73;102701.16;5067182;28;20084;-81
2022/01/14 06:17:46;;;;;;;20.65;11.27;;;;;;;0.02;83.72;102704.41;5070642;28;20052;-80
2022/01/14 06:25:57;;;;;;;14.02;8.75;;;;;;;-0.01;83.72;102712.91;5070798;28;20090;-80
2022/01/14 06:29:03;;;;;;;14.55;8.52;;;;;;;-0.07;83.13;102717.03;5071292;28;20090;-80
2022/01/14 06:32:09;;;;;;;13.55;9.48;;;;;;;-0.07;82.75;102717.88;5071351;28;20044;-80
2022/01/14 06:35:20;;;;;;;14.15;7.55;;;;;;;-0.11;82.96;102710.94;5071275;28;20138;-80
2022/01/14 06:38:38;;;;;;;10.23;7.78;;;;;;;-0.07;83.12;102717.88;5079004;28;20410;-79
2022/01/14 06:41:45;;;;;;;11.13;8.07;;;;;;;-0.11;83.40;102720.34;5047535;28;20535;-81
2022/01/14 06:45:13;;;;;;;11.52;8.10;;;;;;;-0.20;83.69;102717.53;5074077;28;20047;-79
2022/01/14 06:48:23;;;;;;;12.55;7.70;;;;;;;-0.10;83.33;102712.66;5083017;28;20055;-80
2022/01/14 06:51:48;;;;;;;10.77;7.10;;;;;;;-0.13;83.28;102717.72;5090721;28;20090;-80
2022/01/14 06:59:53;;;;;;;15.00;8.77;;;;;;;-0.21;83.35;102708.09;5070687;28;20055;-80
2022/01/14 07:02:56;;;;;;;;;;;;;;;-0.28;83.46;102718.19;5080391;28;20190;-79
2022/01/14 07:06:32;;;;;;;14.23;8.40;;;;;;;-0.26;83.72;102713.94;5075900;28;19926;-80
2022/01/14 07:09:38;;;;;;;14.27;8.52;;;;;;;-0.17;83.46;102715.03;5069976;28;20063;-80
2022/01/14 07:12:43;;;;;;;12.10;8.13;;;;;;;-0.09;83.09;102716.13;5070056;28;20154;-79
2022/01/14 07:21:20;;;;;;;12.10;7.97;;;;;;;-0.06;82.42;102713.63;5069332;28;20120;-80
2022/01/14 07:24:24;;;;;;;11.70;7.68;;;;;;;-0.03;82.40;102711.16;5057049;28;20047;-80
2022/01/14 07:27:27;;;;;;;;;;;;;;;-0.04;82.56;102719.69;5074104;28;20461;-82
2022/01/14 07:30:31;;;;;;;12.52;7.60;;;;;;;-0.06;82.40;102721.34;5090542;28;20627;-80
2022/01/14 07:33:34;;;;;;;12.02;7.47;;;;;;;-0.01;82.34;102727.47;5090354;28;20078;-80
2022/01/14 07:36:37;;;;;;;12.45;8.10;;;;;;;-0.14;82.58;102731.41;5090559;28;20114;-80
2022/01/14 07:39:41;;;;;;;14.25;8.45;;;;;;;-0.16;82.67;102737.34;5089142;28;20104;-80
2022/01/14 07:58:12;;;;;;;13.68;7.95;;;;;;;-0.15;83.08;102739.09;5066939;28;20411;-79
2022/01/14 08:01:16;;;;;;;13.88;8.68;;;;;;;-0.12;83.16;102731.47;5057144;28;20067;-80
2022/01/14 08:04:19;;;;;;;13.93;9.95;;;;;;;-0.15;nan;102726.25;5068828;28;20052;-80
2022/01/14 08:07:25;;;;;;;20.50;13.23;;;;;;;-0.09;83.28;102739.28;5068393;28;20047;-81
2022/01/14 08:10:28;;;;;;;21.05;12.85;;;;;;;-0.06;83.26;102734.22;5068656;28;20387;-79
2022/01/14 08:13:32;;;;;;;16.48;11.15;;;;;;;-0.02;82.72;102736.03;5045560;28;20055;-78
2022/01/14 08:16:35;;;;;;;;;;;;;;;-0.03;82.84;102729.16;5071320;28;20076;-81
2022/01/14 08:19:39;;;;;;;9.63;6.22;;;;;;;0.01;83.04;102727.53;5056880;28;19962;-80
2022/01/14 08:22:42;;;;;;;14.90;8.40;;;;;;;0.04;82.79;102719.91;5058532;28;20506;-77
2022/01/14 08:25:46;;;;;;;13.23;8.23;;;;;;;-0.02;82.69;102720.59;5049151;28;20509;-78
2022/01/14 08:28:49;;;;;;;14.07;8.48;;;;;;;-0.01;82.65;102723.19;5049310;28;20051;-81
2022/01/14 08:37:02;;;;;;;15.63;9.43;;;;;;;-0.05;82.79;102728.22;5052958;28;20414;-80
2022/01/14 08:40:09;;;;;;;14.80;9.95;;;;;;;-0.01;82.70;102718.06;5069319;28;20462;-80
2022/01/14 08:43:29;;;;;;;16.15;10.40;;;;;;;0.05;82.71;102722.50;5067725;28;20419;-79
2022/01/14 08:47:23;;;;;;;15.57;10.68;;;;;;;-0.13;83.88;102714.28;5064450;28;20127;-80
2022/01/14 08:50:35;;;;;;;16.63;11.18;;;;;;;-0.52;85.01;102717.50;5048370;28;20052;-80
2022/01/14 08:53:39;;;;;;;13.07;9.45;;;;;;;-0.35;85.19;102725.69;5050738;28;20055;-80
2022/01/14 08:56:43;;;;;;;17.38;10.38;;;;;;;-0.17;84.88;102715.03;5067885;28;20044;-79
2022/01/14 08:59:47;;;;;;;14.80;10.30;;;;;;;-0.41;85.76;102716.13;5049274;28;20083;-80
2022/01/14 09:02:51;;;;;;;20.20;11.90;;;;;;;-0.19;84.73;102716.69;5065125;28;20046;-80
2022/01/14 09:05:55;;;;;;;17.02;10.57;;;;;;;-0.02;84.01;102718.88;5055556;28;20047;-80
2022/01/14 09:08:58;;;;;;;;;;;;;;;-0.24;84.53;102720.00;5055363;28;20407;-79
2022/01/14 09:12:02;;;;;;;13.70;8.55;;;;;;;-0.68;86.81;102712.75;5078311;28;19977;-79
2022/01/14 09:15:07;;;;;;;11.38;8.20;;;;;;;-0.32;85.82;102716.38;5086977;28;20077;-79
2022/01/14 09:18:10;;;;;;;32.60;18.80;;;;;;;-0.33;85.76;102714.63;5062028;28;20046;-80
2022/01/14 09:21:15;;;;;;;14.60;9.77;;;;;;;-0.22;85.50;102714.94;5087957;28;20122;-80
2022/01/14 09:24:19;;;;;;;15.60;9.57;;;;;;;-0.13;84.56;102701.44;5074088;28;20564;-80
2022/01/14 09:28:12;;;;;;;11.52;8.13;;;;;;;-0.17;84.88;102697.91;5068896;28;20155;-81
2022/01/14 09:31:16;;;;;;;10.48;7.43;;;;;;;0.05;84.23;102707.06;5067833;28;20117;-80
2022/01/14 09:34:20;;;;;;;11.40;7.75;;;;;;;-0.06;84.43;102708.50;5066030;28;20043;-80
2022/01/14 09:41:41;;;;;;;10.65;6.97;;;;;;;0.11;85.20;102708.94;5067257;28;20118;-80
2022/01/14 09:44:44;;;;;;;10.75;7.00;;;;;;;0.25;84.37;102704.13;5066249;28;20109;-80
2022/01/14 09:47:49;;;;;;;;;;;;;;;0.33;84.38;102705.19;5068230;28;20051;-80
2022/01/14 09:50:52;;;;;;;14.00;8.70;;;;;;;0.45;84.01;102708.09;5071697;28;19919;-80
2022/01/14 09:53:56;;;;;;;16.60;9.27;;;;;;;0.59;83.69;102714.41;5089912;28;20055;-80
2022/01/14 09:56:59;;;;;;;12.98;8.48;;;;;;;0.65;83.51;102717.13;5078906;28;20131;-77
2022/01/14 10:00:05;;;;;;;11.27;7.72;;;;;;;0.69;83.13;102718.94;5091398;28;20169;-79
2022/01/14 10:03:24;;;;;;;14.05;8.15;;;;;;;0.73;82.79;102725.03;5090473;28;20101;-79
2022/01/14 10:06:37;;;;;;;15.57;9.25;;;;;;;0.75;83.00;102717.38;5090895;28;20043;-81
2022/01/14 10:09:43;;;;;;;18.75;12.50;;;;;;;0.49;83.88;102702.16;5087785;28;20128;-87
2022/01/14 10:12:47;;;;;;;23.10;17.38;;;;;;;0.51;84.06;102702.19;5058557;28;20067;-88
2022/01/14 10:15:58;;;;;;;16.05;12.20;;;;;;;0.28;85.17;102693.91;5047524;28;20051;-88
2022/01/14 10:19:02;;;;;;;14.45;10.05;;;;;;;-0.31;87.61;102705.25;5059142;28;20098;-89
2022/01/14 10:22:25;;;;;;;15.20;8.27;;;;;;;-0.21;88.13;102708.09;5088897;28;20103;-78
2022/01/14 10:25:28;;;;;;;12.93;9.20;;;;;;;-0.10;87.70;102696.38;5066840;28;20070;-77
2022/01/14 10:29:05;;;;;;;15.02;10.18;;;;;;;-0.21;87.90;102690.09;5070813;28;20085;-77
2022/01/14 10:32:12;;;;;;;20.85;12.77;;;;;;;0.10;87.28;102678.91;5071157;28;20138;-77
2022/01/14 10:35:19;;;;;;;17.20;11.70;;;;;;;0.14;86.31;102676.44;5075719;28;20059;-76
2022/01/14 10:38:25;;;;;;;11.85;8.40;;;;;;;0.25;86.36;102675.81;5091443;28;20422;-77
2022/01/14 10:41:29;;;;;;;10.23;7.78;;;;;;;-0.05;87.75;102680.22;5090678;28;20050;-75
2022/01/14 10:44:38;;;;;;;13.63;8.43;;;;;;;-0.05;88.03;102679.38;5064821;28;20063;-77
2022/01/14 10:47:51;;;;;;;11.55;8.10;;;;;;;0.15;87.99;102678.16;5080333;22;20205;-75
2022/01/14 10:51:03;;;;;;;11.77;7.93;;;;;;;0.35;87.02;102665.81;5048775;28;20098;-74
2022/01/14 10:54:06;;;;;;;11.93;7.78;;;;;;;0.52;86.40;102668.78;5051043;28;20052;-75
2022/01/14 10:57:16;;;;;;;16.00;9.48;;;;;;;0.26;87.73;102664.72;5036779;28;20407;-74
2022/01/14 11:00:20;;;;;;;14.10;8.45;;;;;;;0.31;87.62;102670.81;5048970;28;20075;-74
2022/01/14 11:03:44;;;;;;;11.85;8.60;;;;;;;0.37;87.86;102668.41;5068560;28;20130;-75
2022/01/14 11:06:47;;;;;;;;;;;;;;;0.49;87.50;102662.69;5070784;28;20039;-74
2022/01/14 11:09:52;;;;;;;12.90;8.55;;;;;;;0.60;87.18;102666.38;5070185;28;20018;-74
2022/01/14 11:12:57;;;;;;;14.27;9.18;;;;;;;0.31;88.73;102679.41;5068313;28;20450;-75
2022/01/14 11:16:00;;;;;;;9.55;7.70;;;;;;;0.36;88.83;102661.53;5069074;28;20474;-75
2022/01/14 11:19:07;;;;;;;11.40;8.30;;;;;;;0.32;89.50;102663.16;5067999;28;20056;-75
2022/01/14 11:25:38;;;;;;;18.02;12.10;;;;;;;0.52;88.07;102637.88;5070400;28;20044;-74
2022/01/14 11:28:44;;;;;;;18.23;13.60;;;;;;;0.44;89.44;102647.97;5070848;28;20048;-74
2022/01/14 11:31:59;;;;;;;39.15;26.85;;;;;;;0.46;89.67;102630.03;5030076;28;20049;-74
2022/01/14 11:35:30;;;;;;;21.02;14.43;;;;;;;0.75;89.02;102624.66;5032503;28;20087;-75
2022/01/14 11:38:41;;;;;;;16.48;13.10;;;;;;;0.84;88.59;102615.44;5036057;28;20167;-74
2022/01/14 11:41:57;;;;;;;19.42;14.07;;;;;;;0.92;88.21;102607.84;5057008;28;20053;-75
2022/01/14 11:45:02;;;;;;;23.95;17.38;;;;;;;0.88;88.39;102590.59;5069515;28;20062;-74
2022/01/14 11:48:06;;;;;;;19.45;13.95;;;;;;;0.86;88.68;102580.28;5035970;28;20339;-75
2022/01/14 11:51:15;;;;;;;22.92;17.15;;;;;;;0.89;88.45;102569.16;5048449;28;20107;-75
2022/01/14 11:54:18;;;;;;;19.75;15.65;;;;;;;1.07;88.16;102574.69;5035829;28;20123;-75
2022/01/14 11:57:47;;;;;;;11.65;8.27;;;;;;;1.12;87.27;102570.50;5024542;28;20527;-74
2022/01/14 12:00:50;;;;;;;52.17;37.67;;;;;;;0.98;88.40;102566.75;5036241;28;20048;-74
2022/01/14 12:03:54;;;;;;;36.88;25.20;;;;;;;1.09;88.40;102565.28;5048807;28;20140;-74
2022/01/14 12:06:59;;;;;;;43.53;29.52;;;;;;;1.24;88.09;102567.25;5053341;28;20093;-75
2022/01/14 12:10:09;;;;;;;21.77;14.20;;;;;;;1.26;87.64;102564.72;5068398;28;20127;-74
2022/01/14 12:16:59;;;;;;;29.40;21.67;;;;;;;1.49;87.17;102583.19;5050875;28;20144;-75
2022/01/14 12:20:10;;;;;;;15.15;10.15;;;;;;;1.38;87.26;102577.84;5047472;28;20533;-75
2022/01/14 12:23:18;;;;;;;16.27;13.32;;;;;;;1.39;87.32;102571.84;5036423;28;20048;-74
2022/01/14 12:26:23;;;;;;;23.95;20.38;;;;;;;1.44;87.71;102569.38;5048326;28;20051;-75
2022/01/14 12:29:34;;;;;;;18.35;12.40;;;;;;;1.26;88.59;102559.56;5050719;28;20097;-75
2022/01/14 12:32:41;;;;;;;18.15;12.60;;;;;;;1.46;88.04;102559.94;5068117;28;20047;-74
2022/01/14 12:35:44;;;;;;;17.35;12.93;;;;;;;1.54;87.74;102548.91;5067058;28;20075;-75
2022/01/14 12:38:49;;;;;;;12.20;9.55;;;;;;;1.42;87.92;102542.69;5048120;28;20047;-75
2022/01/14 12:41:53;;;;;;;21.98;17.60;;;;;;;1.36;88.83;102528.84;5024055;28;20510;-75
2022/01/14 12:44:58;;;;;;;24.00;19.00;;;;;;;1.45;88.36;102515.25;5034786;28;20200;-75
2022/01/14 12:48:39;;;;;;;18.60;14.88;;;;;;;1.61;87.74;102516.38;5067858;28;20098;-75
2022/01/14 12:51:42;;;;;;;17.52;12.00;;;;;;;1.60;87.84;102506.91;5045557;28;20047;-74
2022/01/14 12:54:46;;;;;;;33.53;25.40;;;;;;;1.69;87.55;102508.75;5055478;28;20047;-75
2022/01/14 12:57:56;;;;;;;16.10;12.40;;;;;;;1.66;87.57;102500.97;5067075;28;20039;-75
2022/01/14 13:01:09;;;;;;;17.33;12.52;;;;;;;1.67;87.55;102506.16;5068195;28;20071;-75
2022/01/14 13:04:14;;;;;;;39.38;26.80;;;;;;;1.76;87.58;102497.72;5040180;28;20110;-75
2022/01/14 13:07:24;;;;;;;20.00;13.75;;;;;;;1.80;87.85;102489.16;5059295;28;20087;-75
2022/01/14 13:10:27;;;;;;;17.75;10.82;;;;;;;1.75;87.80;102483.91;5032307;28;20080;-75
2022/01/14 13:17:43;;;;;;;15.88;10.02;;;;;;;1.91;87.40;102490.19;5066296;28;20048;-75
2022/01/14 13:20:46;;;;;;;15.85;10.27;;;;;;;1.84;87.33;102480.63;5054796;28;20055;-75
2022/01/14 13:23:49;;;;;;;;;;;;;;;1.93;87.20;102490.22;5066980;28;20527;-75
2022/01/14 13:27:03;;;;;;;24.20;17.67;;;;;;;1.99;86.63;102488.59;5050232;28;19923;-75
2022/01/14 13:30:22;;;;;;;15.30;10.90;;;;;;;2.00;87.17;102480.00;5056377;28;20055;-75
2022/01/14 14:25:22;;;;;;;8.20;4.20;;;;;;;1.96;87.16;102504.03;4666288;28;10001268;-75
2022/01/14 14:28:27;;;;;;;13.32;7.10;;;;;;;1.84;87.47;102503.84;5028292;28;20107;-74
2022/01/14 14:31:33;;;;;;;18.17;9.60;;;;;;;1.87;87.44;102503.88;5046890;28;20522;-75
2022/01/14 14:34:36;;;;;;;30.13;16.65;;;;;;;1.91;87.33;102497.94;5046829;28;20106;-75
2022/01/14 14:37:40;;;;;;;;;;;;;;;2.00;87.37;102503.22;5050221;28;20419;-75
2022/01/14 14:40:44;;;;;;;;;;;;;;;2.03;86.58;102503.28;5028944;28;20300;-75
2022/01/14 14:43:48;;;;;;;20.77;10.63;;;;;;;2.09;86.54;102505.09;5029850;28;19923;-75
2022/01/14 14:46:51;;;;;;;;;;;;;;;2.10;86.24;102517.13;5031364;28;20212;-75
2022/01/14 14:49:54;;;;;;;16.92;9.18;;;;;;;2.02;86.26;102508.44;5017965;28;20609;-75
2022/01/14 14:52:59;;;;;;;16.98;8.77;;;;;;;2.02;86.20;102504.13;5017546;28;20099;-75
2022/01/14 14:56:03;;;;;;;15.82;7.90;;;;;;;1.99;86.43;102511.81;5028864;28;20045;-75
2022/01/14 14:59:06;;;;;;;14.35;7.38;;;;;;;1.98;86.39;102509.19;5011077;28;20201;-74
2022/01/14 15:02:11;;;;;;;17.38;9.07;;;;;;;2.00;86.32;102508.38;5023419;28;20044;-75
2022/01/14 15:05:15;;;;;;;22.98;14.18;;;;;;;2.01;86.22;102509.25;5035192;28;20516;-75
2022/01/14 15:08:19;;;;;;;19.50;10.05;;;;;;;1.98;86.34;102514.38;5035411;28;20043;-74
2022/01/14 15:11:22;;;;;;;;;;;;;;;1.97;86.32;102512.63;5032679;28;20044;-75
2022/01/14 15:14:27;;;;;;;9.70;5.75;;;;;;;1.89;86.75;102514.25;5029921;28;19967;-75
2022/01/14 15:21:47;;;;;;;8.38;4.70;;;;;;;1.92;86.25;102522.03;5030866;28;20095;-74
2022/01/14 15:24:50;;;;;;;9.63;4.53;;;;;;;1.93;86.04;102514.31;5033647;28;20100;-75
2022/01/14 15:27:54;;;;;;;11.75;4.63;;;;;;;1.87;86.00;102511.63;5035293;28;20512;-74
2022/01/14 15:30:57;;;;;;;10.77;5.30;;;;;;;1.83;85.65;102509.84;5022577;28;20515;-74
2022/01/14 15:34:01;;;;;;;;;;;;;;;1.80;86.38;102515.81;5035332;28;20107;-74
2022/01/14 15:37:05;;;;;;;8.63;4.63;;;;;;;1.73;86.46;102505.41;5034962;28;19924;-74
2022/01/14 15:40:12;;;;;;;9.70;5.03;;;;;;;1.67;86.23;102506.16;5028952;28;20056;-74
2022/01/14 15:43:15;;;;;;;9.23;6.03;;;;;;;1.53;86.62;102495.63;5030062;28;20068;-74
2022/01/14 15:46:18;;;;;;;;;;;;;;;1.52;86.56;102499.03;5029981;28;20092;-75
2022/01/14 15:49:21;;;;;;;11.80;6.63;;;;;;;1.49;86.84;102496.41;5017636;28;20425;-74
2022/01/14 15:52:26;;;;;;;13.65;6.38;;;;;;;1.42;87.21;102492.00;5016818;28;20052;-75
2022/01/14 15:55:29;;;;;;;;;;;;;;;1.50;86.55;102489.53;5028749;28;20147;-75
2022/01/14 15:58:34;;;;;;;13.95;7.57;;;;;;;1.51;86.03;102481.84;5017061;28;19966;-74
2022/01/14 16:01:38;;;;;;;7.20;4.35;;;;;;;1.44;86.38;102484.31;5029875;28;20048;-74
2022/01/14 16:07:47;;;;;;;6.63;4.35;;;;;;;1.33;86.47;102477.22;5109263;28;20134;-63
2022/01/14 16:10:51;;;;;;;17.23;8.88;;;;;;;1.25;86.02;102472.81;5112971;28;20575;-63
2022/01/14 16:14:05;;;;;;;14.23;6.90;;;;;;;1.13;86.48;102474.31;5113552;28;20561;-63
2022/01/14 16:17:10;;;;;;;19.40;13.30;;;;;;;1.15;86.13;102479.50;5114454;28;20050;-63
2022/01/14 16:20:18;;;;;;;16.75;9.82;;;;;;;1.11;86.33;102480.28;5102072;28;20062;-63
2022/01/14 16:23:25;;;;;;;13.25;7.13;;;;;;;1.07;86.55;102481.94;5114685;28;20046;-63
2022/01/14 16:26:28;;;;;;;26.13;14.02;;;;;;;1.04;86.59;102481.00;5101847;28;20059;-63
2022/01/14 16:35:47;;;;;;;17.40;10.18;;;;;;;0.90;86.55;102480.75;5071830;28;20048;-63
2022/01/14 16:38:50;;;;;;;18.55;10.27;;;;;;;0.84;86.35;102478.06;5061245;28;20090;-63
2022/01/14 16:41:54;;;;;;;26.95;18.70;;;;;;;0.75;86.90;102477.88;5072698;28;20047;-63
2022/01/14 16:44:58;;;;;;;33.92;23.70;;;;;;;0.78;87.77;102485.66;5072777;28;20475;-63
2022/01/14 16:48:03;;;;;;;29.13;19.02;;;;;;;0.78;86.67;102483.97;5037023;28;20091;-63
2022/01/14 16:51:07;;;;;;;31.92;18.42;;;;;;;0.78;86.55;102490.81;5049446;28;20078;-63
2022/01/14 16:54:09;;;;;;;25.55;17.00;;;;;;;0.75;86.84;102495.91;5050704;28;20122;-63
2022/01/14 16:57:13;;;;;;;19.92;13.55;;;;;;;0.85;86.18;102497.81;5039540;28;20407;-63
2022/01/14 17:00:18;;;;;;;20.02;12.27;;;;;;;0.86;86.32;102504.69;5052551;28;20105;-63
2022/01/14 17:03:22;;;;;;;22.42;17.83;;;;;;;0.79;86.22;102510.56;5040956;28;20091;-63
2022/01/14 17:06:25;;;;;;;22.55;16.35;;;;;;;0.78;85.57;102517.44;5040539;28;20113;-63
2022/01/14 17:09:28;;;;;;;28.17;18.17;;;;;;;0.73;85.15;102502.72;5040597;28;20056;-63
2022/01/14 17:12:35;;;;;;;;;;;;;;;0.63;85.35;102510.25;5053266;28;20129;-63
2022/01/14 17:15:38;;;;;;;20.85;15.00;;;;;;;0.64;85.47;102504.28;5052153;28;19920;-63
2022/01/14 17:18:42;;;;;;;11.82;8.00;;;;;;;0.62;85.79;102510.25;5052770;28;20558;-63
2022/01/14 17:21:46;;;;;;;18.52;11.50;;;;;;;0.64;85.52;102508.59;5051892;28;20049;-64
2022/01/14 17:24:49;;;;;;;21.25;10.90;;;;;;;0.54;85.76;102502.34;5052728;28;20051;-63
2022/01/14 17:27:52;;;;;;;18.27;11.80;;;;;;;0.50;85.18;102500.56;5052586;28;20063;-63
2022/01/14 17:30:56;;;;;;;22.10;12.90;;;;;;;0.47;84.97;102497.91;5052996;28;20051;-63
2022/01/14 17:33:59;;;;;;;31.42;14.77;;;;;;;0.55;84.98;102506.69;5019598;28;20072;-63
2022/01/14 17:37:03;;;;;;;23.67;12.02;;;;;;;0.51;85.54;102514.28;5020703;28;20417;-63
2022/01/14 17:40:07;;;;;;;16.73;10.90;;;;;;;0.53;85.29;102513.50;5032944;28;20048;-63
2022/01/14 17:43:11;;;;;;;25.10;13.25;;;;;;;0.42;85.52;102504.69;5033006;28;20056;-63
2022/01/14 17:46:19;;;;;;;18.85;12.95;;;;;;;0.17;86.05;102519.56;5019977;28;20047;-63
2022/01/14 17:49:23;;;;;;;41.90;25.65;;;;;;;0.26;86.27;102507.78;5031887;28;20052;-63
2022/01/14 17:52:26;;;;;;;58.42;32.95;;;;;;;0.32;86.08;102513.03;5032573;28;20068;-63
2022/01/14 17:55:30;;;;;;;;;;;;;;;0.34;85.96;102509.66;5032165;28;20128;-63
2022/01/14 17:58:33;;;;;;;38.83;23.98;;;;;;;0.39;85.34;102513.19;5032538;28;19931;-63
2022/01/14 18:01:52;;;;;;;37.42;21.58;;;;;;;0.28;84.94;102508.66;5032515;28;20052;-63
2022/01/14 18:04:56;;;;;;;33.45;21.73;;;;;;;0.33;85.17;102510.50;5020374;28;20055;-63
2022/01/14 18:07:59;;;;;;;37.83;22.88;;;;;;;0.45;85.23;102507.31;5019197;28;20080;-63
2022/01/14 18:11:04;;;;;;;32.22;20.10;;;;;;;0.51;84.88;102522.91;5034665;28;20187;-63
2022/01/14 18:14:18;;;;;;;38.75;22.95;;;;;;;0.56;84.81;102530.72;5036297;28;20099;-63
2022/01/14 18:17:22;;;;;;;28.45;18.83;;;;;;;0.46;84.21;102524.50;5036097;28;20112;-63
2022/01/14 18:20:25;;;;;;;36.72;24.45;;;;;;;0.56;84.65;102522.97;5023882;28;20060;-63